This is the latest recevied weather packets stored in our database for station/object LROD. If no packets are shown the sender has not sent any weather packets the latest 10 day(s).
| Time | Temp. | Humidity | Pressure | Rain* | Wind** | Luminosity | Snow |
|---|---|---|---|---|---|---|---|
| 1778107706 | 16.11° C | 63% | 1011 hPa | - | - | - | - |
| 1778106809 | 16.11° C | 63% | 1011 hPa | - | - | - | - |
| 1778105909 | 16.11° C | 63% | 1011 hPa | - | - | - | - |
| 1778105009 | 16.11° C | 63% | 1011 hPa | - | - | - | - |
| 1778104125 | 17.22° C | 59% | 1011 hPa | - | - | - | - |
| 1778103210 | 17.22° C | 59% | 1011 hPa | - | - | - | - |
| 1778102306 | 17.22° C | 59% | 1011 hPa | - | - | - | - |
| 1778101409 | 17.22° C | 59% | 1011 hPa | - | - | - | - |
| 1778100510 | 17.78° C | 52% | 1011 hPa | - | - | - | - |
| 1778099610 | 17.78° C | 52% | 1011 hPa | - | - | - | - |
| 1778098706 | 17.78° C | 52% | 1011 hPa | - | - | - | - |
| 1778097809 | 17.78° C | 52% | 1011 hPa | - | - | - | - |
| 1778096929 | 17.78° C | 52% | 1011 hPa | - | - | - | - |
| 1778096033 | 17.78° C | 52% | 1011 hPa | - | - | - | - |
| 1778095110 | 18.89° C | 49% | 1011 hPa | - | - | - | - |
| 1778094209 | 18.89° C | 49% | 1011 hPa | - | - | - | - |
| 1778093315 | 17.78° C | 52% | 1011 hPa | - | - | - | - |
| 1778092410 | 17.78° C | 52% | 1011 hPa | - | - | - | - |
| 1778091509 | 20° C | 46% | 1011 hPa | - | - | - | - |
| 1778090610 | 20° C | 46% | 1011 hPa | - | - | - | - |
| 1778089710 | 22.22° C | 41% | 1010 hPa | - | - | - | - |
| 1778088809 | 22.22° C | 41% | 1010 hPa | - | - | - | - |
| 1778087909 | 23.89° C | 36% | 1010 hPa | - | - | - | - |
| 1778087009 | 23.89° C | 36% | 1010 hPa | - | - | - | - |
| 1778086109 | 25° C | 34% | 1011 hPa | - | - | - | - |
* Rain since midnight (hover to see other rain measurements)
** Current wind speed in m/s (hover to see current wind gust speed)